Detall de PIREP

Printer-friendly versionPDF version

[2012/11/01 14:53:00]
Flight IATA:CT0001
Pilot Number:012
Company ICAO:CAT
Aircraft Type:A343/E
PAX:295
Departing Airport: LEAL
Destination Airport: LEBL
Alternate Airport:LEPA
Online: VATSIM
Route:MITOS UN608 MATEX
Flight Level:F300
No Slew and time accel
No pause
Crash detect
Detect pilot in Cockpit between each 30 and 45 minutes
14:53 Zero fuel Weight: 324278 Lbs, Fuel Weight: 39385 Lbs
14:53 VATSIM:LEAL 011400Z 27015KT 9999 FEW030 22/05 Q1004 NOSIG
14:53 VATSIM:LEBL 011400Z 26014KT 220V280 9999 FEW025 20/04 Q0999 NOSIG
14:54 VOICE CATALONIAN
15:04 Parking Brakes off
15:10 Take-off
15:10 Take off Weight: 362216 Lbs
15:10 Wind: 252º @ 013 Knots Heading: 277º
15:10 POS N38º 16´ 56´´ W000º 33´ 31´´
15:11 Gear Up: 212 Knots
15:20 TOC
15:20 Fuel Weight: 33085 Lb
15:26 Wind:272º@089 Knots Heading: 349º Ground Speed: 475 Knots Altitude 29701 ft
15:33 TOD
15:33 Fuel Weight: 29561 Lb
15:41 Wind:288º@036 Knots Heading: 072º Ground Speed: 363 Knots Altitude 13894 ft
15:55 Flaps:1 at 211 Knots
15:56 Wind:257º@014 Knots Heading: 230º Ground Speed: 164 Knots Altitude 2309 ft
15:56 Flaps:3 at 162 Knots
15:56 Gear Down: 161 Knots
15:56 Flaps:4 at 158 Knots
15:57 Flaps:5 at 143 Knots
15:59 TouchDown:Rate -128 ft/min Speed: 132 Knots
16:00 VATSIM:LEBL 011500Z 27014KT 9999 FEW025 20/05 Q1000 NOSIG
16:00 Land
16:00 Wind:272º@014 Knots
16:00 Heading: 246º
16:00 Flight Duration: 00:50
16:00 Landing Weight: 351418 Lbs
16:00 POS N41º 18´ 00´´ E002º 05´ 14´´
16:03 Parking brakes on
16:03 Block to Block Duration: 00:59
16:03 Final Fuel: 26728 Lbls
16:03 Spent Fuel: 12656 Lbls
16:03 Flight Length: 299 NM
16:03 TOD Land Length: 132 NM

Exportar CSV

Powered by Drupal - Modified by Danger4k